Terminal Aerodrome Forecast
Issued by NWS

Home | Current Version | Previous Version | Text Only | Print | Product List | Glossary On
Versions: 1 2 3 4 5 6 7 8 9 10 11 12 13 14 15 16 17 18 19 20 21
000
FTUS43 KILX 221100
TAFCMI
TAF
KCMI 221137Z 2212/2312 32006KT P6SM VCTS SCT060CB BKN150
      TEMPO 2213/2215 4SM TSRA BR BKN035CB
     FM221500 26007KT 5SM BR VCTS BKN035CB
     FM221700 24008KT P6SM SCT035 BKN250
     FM222100 25010KT P6SM VCTS SCT040CB BKN250
     FM230200 24003KT P6SM BKN150=

USA.gov is the U.S. government's official web portal to all federal, state and local government web resources and services.